VLG1TX LECO-LEBL
Flight info
| Callsign | VLG1TX |
|---|---|
| Flight time | N/A |
| Altitude | 32000 |
| Route | ROXER DCT LASKU DCT RONSI DCT OBETO M190 BLV M601 RONNY DCT SURCO M601 GRAUS |
| Aircraft | A321/M-SDFGHILORVWXY/LB1 |
Departure
| Time | 2026-04-15 17:34 |
|---|---|
| Airport | A Coruña Airport (LECO) |
Arrival
| Time | N/A |
|---|---|
| Airport | Josep Tarradellas Barcelona-El Prat Airport (LEBL) |
| Time | Latitude | Longitude | Altitude | Speed | Heading |
|---|---|---|---|---|---|
| 2026-04-15 17:12 | 43.30246 | -8.38007 | 0 ft | 0 kts | 301° |
| 2026-04-15 17:16 | 43.30246 | -8.38006 | 0 ft | 0 kts | 301° |
| 2026-04-15 17:27 | 43.30233 | -8.37981 | 275 ft | 4 kts | 320° |
| 2026-04-15 17:27 | 43.30212 | -8.37967 | 280 ft | 4 kts | 6° |
| 2026-04-15 17:27 | 43.30198 | -8.37972 | 279 ft | 0 kts | 31° |
| 2026-04-15 17:28 | 43.30197 | -8.37972 | 279 ft | 0 kts | 31° |
| 2026-04-15 17:30 | 43.30198 | -8.37972 | 279 ft | 0 kts | 31° |
| 2026-04-15 17:31 | 43.30202 | -8.37969 | 280 ft | 3 kts | 31° |
| 2026-04-15 17:31 | 43.30234 | -8.37942 | 276 ft | 7 kts | 31° |
| 2026-04-15 17:31 | 43.30273 | -8.37894 | 274 ft | 8 kts | 69° |
| 2026-04-15 17:31 | 43.30255 | -8.37826 | 273 ft | 9 kts | 123° |
| 2026-04-15 17:32 | 43.30227 | -8.37742 | 273 ft | 11 kts | 91° |
| 2026-04-15 17:32 | 43.30288 | -8.37659 | 272 ft | 15 kts | 30° |
| 2026-04-15 17:32 | 43.30386 | -8.37579 | 272 ft | 18 kts | 31° |
| 2026-04-15 17:32 | 43.30498 | -8.37487 | 273 ft | 20 kts | 30° |
| 2026-04-15 17:33 | 43.30622 | -8.37387 | 275 ft | 21 kts | 31° |
| 2026-04-15 17:33 | 43.30758 | -8.37282 | 278 ft | 23 kts | 28° |
| 2026-04-15 17:33 | 43.30906 | -8.37193 | 276 ft | 24 kts | 7° |
| 2026-04-15 17:33 | 43.30973 | -8.37131 | 276 ft | 10 kts | 114° |
| 2026-04-15 17:34 | 43.30901 | -8.37154 | 276 ft | 20 kts | 211° |
| 2026-04-15 17:34 | 43.30546 | -8.37447 | 273 ft | 102 kts | 210° |
| 2026-04-15 17:34 | 43.29732 | -8.38121 | 337 ft | 162 kts | 212° |
| 2026-04-15 17:34 | 43.28759 | -8.38910 | 1159 ft | 160 kts | 207° |
| 2026-04-15 17:35 | 43.27676 | -8.39124 | 2150 ft | 158 kts | 177° |
| 2026-04-15 17:35 | 43.26638 | -8.38527 | 2974 ft | 172 kts | 146° |
| 2026-04-15 17:35 | 43.25932 | -8.37134 | 3723 ft | 190 kts | 111° |
| 2026-04-15 17:35 | 43.25803 | -8.35217 | 4173 ft | 215 kts | 95° |
| 2026-04-15 17:36 | 43.25728 | -8.33055 | 4518 ft | 240 kts | 96° |
| 2026-04-15 17:36 | 43.25614 | -8.30655 | 4981 ft | 265 kts | 97° |
| 2026-04-15 17:36 | 43.25486 | -8.28049 | 5612 ft | 280 kts | 97° |
| 2026-04-15 17:36 | 43.25361 | -8.25352 | 6489 ft | 286 kts | 96° |
| 2026-04-15 17:37 | 43.25241 | -8.22601 | 7343 ft | 291 kts | 96° |
| 2026-04-15 17:37 | 43.25122 | -8.19805 | 8180 ft | 296 kts | 95° |
| 2026-04-15 17:37 | 43.25002 | -8.16962 | 9057 ft | 301 kts | 95° |
| 2026-04-15 17:37 | 43.24884 | -8.14069 | 9918 ft | 306 kts | 95° |
| 2026-04-15 17:38 | 43.24763 | -8.11116 | 10588 ft | 318 kts | 95° |
| 2026-04-15 17:38 | 43.24633 | -8.07973 | 10859 ft | 342 kts | 95° |
| 2026-04-15 17:38 | 43.24492 | -8.04638 | 11291 ft | 356 kts | 95° |
| 2026-04-15 17:38 | 43.24344 | -8.01212 | 11989 ft | 363 kts | 95° |
| 2026-04-15 17:39 | 43.24191 | -7.97726 | 12711 ft | 369 kts | 94° |
| 2026-04-15 17:39 | 43.24034 | -7.94179 | 13433 ft | 375 kts | 94° |
| 2026-04-15 17:39 | 43.23875 | -7.90586 | 14133 ft | 381 kts | 94° |
| 2026-04-15 17:39 | 43.23713 | -7.86930 | 14746 ft | 386 kts | 94° |
| 2026-04-15 17:40 | 43.23547 | -7.83234 | 15372 ft | 392 kts | 94° |
| 2026-04-15 17:40 | 43.23380 | -7.79478 | 16016 ft | 397 kts | 94° |
| 2026-04-15 17:40 | 43.23204 | -7.75628 | 16681 ft | 402 kts | 94° |
| 2026-04-15 17:40 | 43.23025 | -7.71830 | 17317 ft | 407 kts | 94° |
| 2026-04-15 17:41 | 43.22837 | -7.67881 | 17961 ft | 413 kts | 94° |
| 2026-04-15 17:41 | 43.22651 | -7.63936 | 18581 ft | 418 kts | 94° |
| 2026-04-15 17:41 | 43.22463 | -7.59930 | 19117 ft | 422 kts | 94° |
| 2026-04-15 17:41 | 43.22276 | -7.55896 | 19703 ft | 426 kts | 94° |
| 2026-04-15 17:42 | 43.22086 | -7.51822 | 20314 ft | 430 kts | 94° |
| 2026-04-15 17:42 | 43.21893 | -7.47720 | 20911 ft | 433 kts | 94° |
| 2026-04-15 17:42 | 43.21695 | -7.43581 | 21513 ft | 437 kts | 94° |
| 2026-04-15 17:42 | 43.21491 | -7.39409 | 22107 ft | 440 kts | 94° |
| 2026-04-15 17:43 | 43.21475 | -7.35203 | 22701 ft | 443 kts | 84° |
| 2026-04-15 17:43 | 43.21903 | -7.31006 | 23289 ft | 446 kts | 78° |
| 2026-04-15 17:43 | 43.22444 | -7.26810 | 23861 ft | 449 kts | 78° |
| 2026-04-15 17:43 | 43.22989 | -7.22583 | 24338 ft | 452 kts | 78° |
| 2026-04-15 17:44 | 43.23534 | -7.18323 | 24798 ft | 455 kts | 78° |
| 2026-04-15 17:44 | 43.24077 | -7.14034 | 25272 ft | 458 kts | 78° |
| 2026-04-15 17:44 | 43.24622 | -7.09717 | 25731 ft | 461 kts | 78° |
| 2026-04-15 17:44 | 43.25170 | -7.05370 | 26185 ft | 464 kts | 78° |
| 2026-04-15 17:45 | 43.25718 | -7.01012 | 26636 ft | 466 kts | 78° |
| 2026-04-15 17:45 | 43.26272 | -6.96605 | 27088 ft | 470 kts | 78° |
| 2026-04-15 17:45 | 43.26828 | -6.92172 | 27532 ft | 472 kts | 78° |
| 2026-04-15 17:45 | 43.27384 | -6.87721 | 27980 ft | 475 kts | 79° |
| 2026-04-15 17:46 | 43.27937 | -6.83248 | 28409 ft | 477 kts | 79° |
| 2026-04-15 17:46 | 43.28489 | -6.78737 | 28857 ft | 480 kts | 79° |
| 2026-04-15 17:46 | 43.29042 | -6.74206 | 29280 ft | 483 kts | 79° |
| 2026-04-15 17:46 | 43.29597 | -6.69662 | 29683 ft | 486 kts | 79° |
| 2026-04-15 17:47 | 43.30163 | -6.65063 | 30112 ft | 488 kts | 79° |
| 2026-04-15 17:47 | 43.30729 | -6.60454 | 30479 ft | 491 kts | 79° |
| 2026-04-15 17:47 | 43.31294 | -6.55835 | 30801 ft | 494 kts | 79° |
| 2026-04-15 17:47 | 43.31861 | -6.51176 | 31136 ft | 496 kts | 79° |
| 2026-04-15 17:48 | 43.32434 | -6.46428 | 31475 ft | 499 kts | 79° |
| 2026-04-15 17:48 | 43.32808 | -6.43308 | 31699 ft | 501 kts | 79° |
| 2026-04-15 17:48 | 43.33370 | -6.38582 | 32064 ft | 502 kts | 79° |
| 2026-04-15 17:48 | 43.33933 | -6.33838 | 32212 ft | 500 kts | 79° |
| 2026-04-15 17:49 | 43.34485 | -6.29199 | 32239 ft | 484 kts | 79° |
| 2026-04-15 17:49 | 43.35020 | -6.24683 | 32245 ft | 475 kts | 79° |
| 2026-04-15 17:49 | 43.36080 | -6.15764 | 32254 ft | 472 kts | 79° |
| 2026-04-15 17:50 | 43.37126 | -6.06859 | 32261 ft | 471 kts | 79° |
| 2026-04-15 17:50 | 43.38157 | -5.97966 | 32262 ft | 471 kts | 79° |
| 2026-04-15 17:51 | 43.39183 | -5.89077 | 32263 ft | 471 kts | 79° |
| 2026-04-15 17:51 | 43.40204 | -5.80191 | 32263 ft | 471 kts | 79° |
| 2026-04-15 17:52 | 43.41217 | -5.71294 | 32263 ft | 471 kts | 79° |
| 2026-04-15 17:52 | 43.42219 | -5.62390 | 32259 ft | 471 kts | 79° |
| 2026-04-15 17:53 | 43.43226 | -5.53429 | 32257 ft | 471 kts | 79° |
| 2026-04-15 17:53 | 43.44216 | -5.44522 | 32259 ft | 471 kts | 80° |
| 2026-04-15 17:54 | 43.45201 | -5.35625 | 32263 ft | 471 kts | 80° |
| 2026-04-15 17:54 | 43.46184 | -5.26720 | 32263 ft | 470 kts | 80° |
| 2026-04-15 17:55 | 43.47157 | -5.17811 | 32263 ft | 470 kts | 80° |
| 2026-04-15 17:55 | 43.48123 | -5.08913 | 32264 ft | 470 kts | 80° |
| 2026-04-15 17:56 | 43.49075 | -5.00003 | 32265 ft | 470 kts | 81° |
| 2026-04-15 17:56 | 43.50018 | -4.91100 | 32264 ft | 470 kts | 81° |
| 2026-04-15 17:57 | 43.50153 | -4.82124 | 32265 ft | 470 kts | 94° |
| 2026-04-15 17:57 | 43.49674 | -4.73149 | 32265 ft | 470 kts | 94° |
| 2026-04-15 17:58 | 43.49199 | -4.64169 | 32261 ft | 470 kts | 94° |
| 2026-04-15 17:58 | 43.48714 | -4.55201 | 32264 ft | 470 kts | 95° |
| 2026-04-15 17:59 | 43.48222 | -4.46232 | 32261 ft | 470 kts | 94° |
| 2026-04-15 17:59 | 43.47785 | -4.37259 | 32257 ft | 470 kts | 94° |
| 2026-04-15 18:00 | 43.47347 | -4.28287 | 32254 ft | 470 kts | 95° |
| 2026-04-15 18:00 | 43.46814 | -4.19261 | 32256 ft | 470 kts | 95° |
| 2026-04-15 18:01 | 43.46240 | -4.10306 | 32267 ft | 470 kts | 95° |
| 2026-04-15 18:01 | 43.45673 | -4.01338 | 32272 ft | 470 kts | 95° |
| 2026-04-15 18:02 | 43.45108 | -3.92384 | 32274 ft | 470 kts | 96° |
| 2026-04-15 18:02 | 43.43998 | -3.83542 | 32272 ft | 469 kts | 103° |
| 2026-04-15 18:03 | 43.42703 | -3.74758 | 32271 ft | 469 kts | 103° |
| 2026-04-15 18:03 | 43.41407 | -3.65970 | 32271 ft | 469 kts | 103° |
| 2026-04-15 18:04 | 43.40103 | -3.57189 | 32269 ft | 468 kts | 103° |
| 2026-04-15 18:04 | 43.38789 | -3.48417 | 32267 ft | 468 kts | 103° |
| 2026-04-15 18:05 | 43.37506 | -3.39871 | 32268 ft | 468 kts | 103° |
| 2026-04-15 18:05 | 43.36177 | -3.31081 | 32266 ft | 468 kts | 103° |
| 2026-04-15 18:06 | 43.34875 | -3.22326 | 32266 ft | 468 kts | 103° |
| 2026-04-15 18:06 | 43.33584 | -3.13558 | 32267 ft | 468 kts | 103° |
| 2026-04-15 18:07 | 43.32268 | -3.04744 | 32265 ft | 468 kts | 103° |
| 2026-04-15 18:07 | 43.30907 | -2.96020 | 32266 ft | 467 kts | 107° |
| 2026-04-15 18:08 | 43.28310 | -2.87944 | 32264 ft | 460 kts | 126° |
| 2026-04-15 18:08 | 43.24880 | -2.80536 | 32257 ft | 460 kts | 126° |
| 2026-04-15 18:09 | 43.21459 | -2.73110 | 32254 ft | 460 kts | 125° |
| 2026-04-15 18:09 | 43.18029 | -2.65694 | 32254 ft | 461 kts | 126° |
| 2026-04-15 18:10 | 43.14587 | -2.58301 | 32242 ft | 460 kts | 126° |
| 2026-04-15 18:10 | 43.11146 | -2.50912 | 32257 ft | 460 kts | 126° |
| 2026-04-15 18:11 | 43.07699 | -2.43530 | 32236 ft | 460 kts | 126° |
| 2026-04-15 18:11 | 43.04251 | -2.36157 | 32250 ft | 460 kts | 126° |
| 2026-04-15 18:12 | 43.00802 | -2.28809 | 32239 ft | 459 kts | 126° |
| 2026-04-15 18:12 | 42.97348 | -2.21458 | 32236 ft | 459 kts | 125° |
| 2026-04-15 18:13 | 42.93918 | -2.14099 | 32226 ft | 460 kts | 125° |
| 2026-04-15 18:14 | 42.88789 | -2.03050 | 32218 ft | 463 kts | 125° |
| 2026-04-15 18:14 | 42.87035 | -1.99299 | 32231 ft | 475 kts | 125° |
| 2026-04-15 18:14 | 42.85236 | -1.95466 | 32224 ft | 486 kts | 125° |
| 2026-04-15 18:15 | 42.81529 | -1.87564 | 32220 ft | 500 kts | 125° |
| 2026-04-15 18:15 | 42.77777 | -1.79559 | 32216 ft | 502 kts | 125° |
| 2026-04-15 18:16 | 42.73993 | -1.71511 | 32222 ft | 503 kts | 124° |
| 2026-04-15 18:16 | 42.70839 | -1.62959 | 32218 ft | 506 kts | 117° |
| 2026-04-15 18:17 | 42.67812 | -1.54329 | 32214 ft | 506 kts | 117° |
| 2026-04-15 18:17 | 42.64773 | -1.45710 | 32200 ft | 506 kts | 117° |
| 2026-04-15 18:18 | 42.61721 | -1.37100 | 32186 ft | 506 kts | 117° |
| 2026-04-15 18:18 | 42.58665 | -1.28487 | 32169 ft | 506 kts | 117° |
| 2026-04-15 18:19 | 42.55608 | -1.19874 | 32155 ft | 507 kts | 117° |
| 2026-04-15 18:19 | 42.52536 | -1.11267 | 32148 ft | 508 kts | 118° |
| 2026-04-15 18:20 | 42.49449 | -1.02657 | 32146 ft | 508 kts | 118° |
| 2026-04-15 18:20 | 42.46362 | -0.94046 | 32139 ft | 508 kts | 118° |
| 2026-04-15 18:21 | 42.43268 | -0.85429 | 32133 ft | 509 kts | 118° |
| 2026-04-15 18:21 | 42.40159 | -0.76830 | 32125 ft | 509 kts | 118° |
| 2026-04-15 18:22 | 42.37039 | -0.68227 | 32122 ft | 510 kts | 118° |
| 2026-04-15 18:22 | 42.34423 | -0.61017 | 32122 ft | 510 kts | 118° |
| 2026-04-15 18:23 | 42.31287 | -0.52422 | 32119 ft | 510 kts | 118° |
| 2026-04-15 18:23 | 42.28149 | -0.43824 | 32117 ft | 510 kts | 118° |
| 2026-04-15 18:24 | 42.24994 | -0.35230 | 32118 ft | 511 kts | 118° |
| 2026-04-15 18:24 | 42.21834 | -0.26640 | 32119 ft | 511 kts | 118° |
| 2026-04-15 18:25 | 42.18675 | -0.18060 | 32120 ft | 511 kts | 118° |
| 2026-04-15 18:25 | 42.15506 | -0.09490 | 32119 ft | 511 kts | 118° |
| 2026-04-15 18:26 | 42.12326 | -0.00931 | 32112 ft | 511 kts | 118° |
| 2026-04-15 18:26 | 42.09146 | 0.07633 | 32106 ft | 511 kts | 118° |
| 2026-04-15 18:26 | 42.07529 | 0.11969 | 31733 ft | 510 kts | 118° |
| 2026-04-15 18:27 | 42.05943 | 0.16204 | 31283 ft | 503 kts | 118° |
| 2026-04-15 18:27 | 42.04380 | 0.20377 | 30840 ft | 496 kts | 118° |
| 2026-04-15 18:27 | 42.02838 | 0.24495 | 30410 ft | 490 kts | 118° |
| 2026-04-15 18:27 | 42.01317 | 0.28557 | 29948 ft | 483 kts | 118° |
| 2026-04-15 18:28 | 41.99814 | 0.32563 | 29437 ft | 477 kts | 118° |
| 2026-04-15 18:28 | 41.98332 | 0.36524 | 28959 ft | 471 kts | 116° |
| 2026-04-15 18:28 | 41.97145 | 0.40590 | 28475 ft | 465 kts | 109° |
| 2026-04-15 18:28 | 41.96103 | 0.44675 | 28006 ft | 459 kts | 109° |
| 2026-04-15 18:29 | 41.95072 | 0.48706 | 27534 ft | 454 kts | 109° |
| 2026-04-15 18:29 | 41.94049 | 0.52689 | 27083 ft | 448 kts | 109° |
| 2026-04-15 18:29 | 41.93038 | 0.56622 | 26632 ft | 443 kts | 109° |
| 2026-04-15 18:29 | 41.92035 | 0.60511 | 26174 ft | 438 kts | 109° |
| 2026-04-15 18:30 | 41.91043 | 0.64355 | 25749 ft | 434 kts | 109° |
| 2026-04-15 18:30 | 41.90060 | 0.68166 | 25315 ft | 430 kts | 109° |
| 2026-04-15 18:30 | 41.89081 | 0.71948 | 24893 ft | 426 kts | 109° |
| 2026-04-15 18:30 | 41.88110 | 0.75689 | 24470 ft | 423 kts | 109° |
| 2026-04-15 18:31 | 41.87142 | 0.79403 | 24062 ft | 420 kts | 109° |
| 2026-04-15 18:31 | 41.86178 | 0.83094 | 23648 ft | 418 kts | 109° |
| 2026-04-15 18:31 | 41.85220 | 0.86752 | 23144 ft | 415 kts | 109° |
| 2026-04-15 18:31 | 41.84267 | 0.90390 | 22681 ft | 411 kts | 108° |
| 2026-04-15 18:32 | 41.83325 | 0.93996 | 22217 ft | 408 kts | 108° |
| 2026-04-15 18:32 | 41.82393 | 0.97569 | 21754 ft | 405 kts | 108° |
| 2026-04-15 18:32 | 41.81466 | 1.01111 | 21297 ft | 401 kts | 108° |
| 2026-04-15 18:32 | 41.80546 | 1.04618 | 20855 ft | 397 kts | 108° |
| 2026-04-15 18:33 | 41.79633 | 1.08093 | 20417 ft | 393 kts | 108° |
| 2026-04-15 18:33 | 41.78729 | 1.11529 | 20013 ft | 388 kts | 107° |
| 2026-04-15 18:33 | 41.77837 | 1.14915 | 19655 ft | 382 kts | 107° |
| 2026-04-15 18:33 | 41.76958 | 1.18241 | 19301 ft | 376 kts | 107° |
| 2026-04-15 18:34 | 41.76089 | 1.21519 | 18950 ft | 371 kts | 107° |
| 2026-04-15 18:34 | 41.75219 | 1.24793 | 18600 ft | 365 kts | 107° |
| 2026-04-15 18:34 | 41.74378 | 1.27970 | 18217 ft | 360 kts | 107° |
| 2026-04-15 18:34 | 41.73545 | 1.31115 | 17830 ft | 357 kts | 107° |
| 2026-04-15 18:35 | 41.72721 | 1.34230 | 17439 ft | 354 kts | 107° |
| 2026-04-15 18:35 | 41.71903 | 1.37315 | 17059 ft | 351 kts | 107° |
| 2026-04-15 18:35 | 41.71083 | 1.40393 | 16673 ft | 349 kts | 107° |
| 2026-04-15 18:35 | 41.70268 | 1.43441 | 16299 ft | 347 kts | 107° |
| 2026-04-15 18:36 | 41.69457 | 1.46466 | 15926 ft | 344 kts | 107° |
| 2026-04-15 18:36 | 41.68648 | 1.49475 | 15557 ft | 342 kts | 107° |
| 2026-04-15 18:36 | 41.67846 | 1.52459 | 15193 ft | 340 kts | 107° |
| 2026-04-15 18:36 | 41.67087 | 1.55290 | 14853 ft | 338 kts | 107° |
| 2026-04-15 18:37 | 41.66300 | 1.58232 | 14501 ft | 335 kts | 107° |
| 2026-04-15 18:37 | 41.65515 | 1.61161 | 14152 ft | 333 kts | 107° |
| 2026-04-15 18:37 | 41.64737 | 1.64070 | 13773 ft | 331 kts | 107° |
| 2026-04-15 18:37 | 41.63964 | 1.66955 | 13385 ft | 328 kts | 108° |
| 2026-04-15 18:38 | 41.63194 | 1.69816 | 12987 ft | 326 kts | 108° |
| 2026-04-15 18:38 | 41.62427 | 1.72659 | 12612 ft | 324 kts | 108° |
| 2026-04-15 18:38 | 41.61665 | 1.75476 | 12238 ft | 321 kts | 108° |
| 2026-04-15 18:38 | 41.60909 | 1.78272 | 11871 ft | 319 kts | 108° |
| 2026-04-15 18:39 | 41.60156 | 1.81052 | 11495 ft | 317 kts | 108° |
| 2026-04-15 18:39 | 41.59406 | 1.83809 | 11131 ft | 315 kts | 108° |
| 2026-04-15 18:39 | 41.58659 | 1.86546 | 10774 ft | 312 kts | 108° |
| 2026-04-15 18:39 | 41.57920 | 1.89258 | 10408 ft | 309 kts | 108° |
| 2026-04-15 18:40 | 41.57189 | 1.91946 | 10055 ft | 306 kts | 108° |
| 2026-04-15 18:40 | 41.56465 | 1.94607 | 9664 ft | 304 kts | 108° |
| 2026-04-15 18:40 | 41.55749 | 1.97241 | 9274 ft | 301 kts | 108° |
| 2026-04-15 18:40 | 41.55035 | 1.99854 | 8888 ft | 298 kts | 108° |
| 2026-04-15 18:41 | 41.54316 | 2.02478 | 8499 ft | 296 kts | 108° |
| 2026-04-15 18:41 | 41.53620 | 2.05019 | 8133 ft | 294 kts | 108° |
| 2026-04-15 18:41 | 41.52910 | 2.07607 | 7748 ft | 292 kts | 109° |
| 2026-04-15 18:41 | 41.52262 | 2.10171 | 7387 ft | 290 kts | 102° |
| 2026-04-15 18:42 | 41.52034 | 2.12814 | 7027 ft | 286 kts | 87° |
| 2026-04-15 18:42 | 41.52114 | 2.15455 | 6674 ft | 284 kts | 86° |
| 2026-04-15 18:42 | 41.52192 | 2.18078 | 6291 ft | 283 kts | 86° |
| 2026-04-15 18:42 | 41.52262 | 2.20650 | 6128 ft | 272 kts | 86° |
| 2026-04-15 18:43 | 41.52242 | 2.23134 | 5911 ft | 267 kts | 98° |